createdAt,value
2019-02-17T00:00:37.827Z,4.90
2019-02-17T00:03:07.439Z,4.80
2019-02-17T00:05:37.085Z,4.80
2019-02-17T00:08:06.683Z,4.80
2019-02-17T00:10:36.330Z,4.80
2019-02-17T00:13:05.938Z,4.80
2019-02-17T00:15:35.511Z,4.70
2019-02-17T00:18:05.155Z,4.70
2019-02-17T00:20:34.714Z,4.80
2019-02-17T00:23:04.326Z,4.80
2019-02-17T00:25:34.045Z,4.80
2019-02-17T00:28:03.612Z,4.80
2019-02-17T00:30:33.229Z,4.80
2019-02-17T00:33:02.834Z,4.80
2019-02-17T00:35:32.528Z,4.80
2019-02-17T00:38:02.099Z,4.90
2019-02-17T00:40:31.650Z,4.90
2019-02-17T00:43:01.181Z,4.80
2019-02-17T00:45:30.765Z,4.80
2019-02-17T00:48:00.288Z,4.80
2019-02-17T00:50:29.925Z,4.90
2019-02-17T00:52:59.534Z,4.80
2019-02-17T00:55:29.118Z,4.80
2019-02-17T00:57:58.701Z,4.80
2019-02-17T01:00:28.208Z,4.80
2019-02-17T01:02:57.777Z,4.80
2019-02-17T01:05:27.513Z,4.80
2019-02-17T01:07:57.114Z,4.80
2019-02-17T01:10:26.808Z,4.80
2019-02-17T01:12:56.361Z,4.70
2019-02-17T01:15:25.929Z,4.70
2019-02-17T01:17:55.491Z,4.70
2019-02-17T01:20:25.113Z,4.70
2019-02-17T01:22:54.657Z,4.70
2019-02-17T01:25:24.208Z,4.70
2019-02-17T01:27:53.782Z,4.70
2019-02-17T01:30:23.313Z,4.70
2019-02-17T01:32:52.827Z,4.70
2019-02-17T01:35:22.363Z,4.60
2019-02-17T01:37:52.002Z,4.50
2019-02-17T01:40:21.723Z,4.50
2019-02-17T01:42:51.341Z,4.50
2019-02-17T01:45:20.935Z,4.50
2019-02-17T01:47:50.484Z,4.40
2019-02-17T01:50:20.151Z,4.50
2019-02-17T01:52:50.728Z,4.40
2019-02-17T01:55:20.288Z,4.40
2019-02-17T01:57:49.828Z,4.40
2019-02-17T02:00:19.398Z,4.40
2019-02-17T02:02:48.973Z,4.50
2019-02-17T02:05:18.526Z,4.50
2019-02-17T02:07:48.082Z,4.50
2019-02-17T02:10:17.652Z,4.50
2019-02-17T02:12:47.205Z,4.50
2019-02-17T02:15:16.755Z,4.50
2019-02-17T02:17:46.337Z,4.40
2019-02-17T02:20:15.861Z,4.40
2019-02-17T02:22:45.402Z,4.40
2019-02-17T02:25:14.997Z,4.30
2019-02-17T02:27:44.657Z,4.20
2019-02-17T02:30:14.193Z,4.20
2019-02-17T02:32:43.763Z,4.20
2019-02-17T02:35:13.336Z,4.10
2019-02-17T02:37:42.911Z,4.10
2019-02-17T02:40:12.504Z,4.00
2019-02-17T02:42:42.190Z,4.00
2019-02-17T02:45:12.237Z,4.00
2019-02-17T02:47:41.782Z,4.00
2019-02-17T02:50:11.752Z,3.90
2019-02-17T02:52:41.407Z,3.90
2019-02-17T02:55:11.009Z,3.90
2019-02-17T02:57:40.556Z,3.80
2019-02-17T03:00:10.991Z,3.80
2019-02-17T03:02:40.568Z,3.70
2019-02-17T03:05:10.338Z,3.70
2019-02-17T03:07:39.916Z,3.60
2019-02-17T03:10:09.760Z,3.60
2019-02-17T03:12:39.315Z,3.60
2019-02-17T03:15:09.063Z,3.50
2019-02-17T03:17:38.581Z,3.50
2019-02-17T03:20:08.618Z,3.50
2019-02-17T03:22:38.296Z,3.40
2019-02-17T03:25:09.117Z,3.30
2019-02-17T03:27:38.518Z,3.30
2019-02-17T03:30:09.166Z,3.40
2019-02-17T03:32:38.684Z,3.30
2019-02-17T03:35:08.129Z,3.40
2019-02-17T03:37:37.574Z,3.30
2019-02-17T03:40:07.465Z,3.30
2019-02-17T03:42:36.853Z,3.30
2019-02-17T03:45:06.618Z,3.20
2019-02-17T03:47:36.100Z,3.20
2019-02-17T03:50:05.885Z,3.20
2019-02-17T03:52:35.281Z,3.20
2019-02-17T03:55:04.714Z,3.20
2019-02-17T03:57:34.096Z,3.10
2019-02-17T04:00:03.519Z,3.10
2019-02-17T04:02:32.992Z,3.10
2019-02-17T04:05:02.393Z,3.10
2019-02-17T04:07:31.864Z,3.00
2019-02-17T04:10:01.347Z,3.00
2019-02-17T04:12:30.735Z,3.00
2019-02-17T04:15:00.382Z,2.90
2019-02-17T04:17:29.820Z,2.90
2019-02-17T04:19:59.356Z,2.90
2019-02-17T04:22:28.772Z,2.90
2019-02-17T04:24:58.206Z,2.90
2019-02-17T04:27:27.654Z,2.90
2019-02-17T04:29:57.093Z,2.90
2019-02-17T04:32:26.570Z,2.90
2019-02-17T04:34:55.912Z,3.00
2019-02-17T04:37:25.677Z,3.00
2019-02-17T04:39:55.065Z,3.00
2019-02-17T04:42:24.446Z,3.00
2019-02-17T04:44:53.877Z,3.00
2019-02-17T04:47:23.273Z,3.00
2019-02-17T04:49:52.712Z,3.00
2019-02-17T04:52:23.753Z,3.00
2019-02-17T04:54:53.177Z,3.00
2019-02-17T04:57:22.694Z,3.00
2019-02-17T04:59:53.006Z,3.10
2019-02-17T05:02:22.457Z,3.10
2019-02-17T05:04:51.875Z,3.10
2019-02-17T05:07:21.337Z,3.10
2019-02-17T05:09:50.753Z,3.10
2019-02-17T05:12:20.207Z,3.10
2019-02-17T05:14:49.640Z,3.10
2019-02-17T05:17:19.099Z,3.00
2019-02-17T05:19:48.481Z,3.00
2019-02-17T05:22:18.001Z,3.00
2019-02-17T05:24:47.421Z,2.90
2019-02-17T05:27:16.885Z,2.80
2019-02-17T05:29:46.266Z,2.70
2019-02-17T05:32:15.756Z,2.70
2019-02-17T05:34:45.214Z,2.70
2019-02-17T05:37:14.684Z,2.80
2019-02-17T05:39:44.133Z,2.70
2019-02-17T05:42:13.610Z,2.70
2019-02-17T05:44:43.084Z,2.70
2019-02-17T05:47:12.532Z,2.60
2019-02-17T05:49:42.023Z,2.60
2019-02-17T05:52:11.503Z,2.60
2019-02-17T05:54:41.063Z,2.50
2019-02-17T05:57:10.417Z,2.60
2019-02-17T05:59:39.824Z,2.60
2019-02-17T06:02:09.247Z,2.60
2019-02-17T06:04:38.677Z,2.70
2019-02-17T06:07:08.123Z,2.80
2019-02-17T06:13:05.944Z,2.70
2019-02-17T06:15:35.364Z,2.80
2019-02-17T06:18:04.800Z,2.70
2019-02-17T06:20:34.354Z,2.70
2019-02-17T06:23:03.958Z,2.70
2019-02-17T06:25:33.397Z,2.70
2019-02-17T06:28:02.795Z,2.70
2019-02-17T06:30:32.196Z,2.70
2019-02-17T06:33:01.677Z,2.70
2019-02-17T06:35:31.126Z,2.70
2019-02-17T06:38:00.564Z,2.70
2019-02-17T06:40:30.011Z,2.70
2019-02-17T06:42:59.543Z,2.70
2019-02-17T06:45:28.964Z,2.70
2019-02-17T06:47:58.497Z,2.80
2019-02-17T06:50:28.419Z,2.90
2019-02-17T06:52:57.918Z,3.10
2019-02-17T06:55:34.797Z,3.10
2019-02-17T06:58:04.264Z,3.10
2019-02-17T07:00:42.269Z,3.20
2019-02-17T07:03:12.748Z,3.20
2019-02-17T07:06:10.923Z,3.30
2019-02-17T07:08:40.349Z,3.40
2019-02-17T07:11:10.769Z,3.50
2019-02-17T07:13:41.302Z,3.60
2019-02-17T07:16:10.805Z,3.60
2019-02-17T07:18:40.377Z,3.70
2019-02-17T07:21:11.161Z,3.80
2019-02-17T07:23:41.209Z,3.80
2019-02-17T07:26:10.917Z,4.00
2019-02-17T07:28:40.625Z,4.10
2019-02-17T07:31:16.091Z,4.20
2019-02-17T07:33:45.862Z,4.30
2019-02-17T07:36:15.635Z,4.50
2019-02-17T07:38:45.378Z,4.50
2019-02-17T07:41:15.195Z,4.70
2019-02-17T07:43:45.028Z,4.80
2019-02-17T07:46:14.637Z,5.00
2019-02-17T07:48:44.294Z,5.10
2019-02-17T07:51:14.882Z,5.20
2019-02-17T07:53:44.434Z,5.40
2019-02-17T07:56:14.202Z,5.60
2019-02-17T07:58:43.904Z,5.80
2019-02-17T08:01:13.451Z,5.90
2019-02-17T08:03:42.978Z,6.10
2019-02-17T08:06:12.590Z,6.30
2019-02-17T08:08:42.187Z,6.40
2019-02-17T08:11:11.806Z,6.60
2019-02-17T08:13:41.426Z,6.70
2019-02-17T08:16:11.333Z,6.90
2019-02-17T08:18:40.898Z,7.00
2019-02-17T08:21:10.487Z,7.10
2019-02-17T08:23:40.161Z,7.30
2019-02-17T08:26:09.943Z,7.30
2019-02-17T08:28:39.506Z,7.50
2019-02-17T08:31:09.039Z,7.50
2019-02-17T08:33:38.695Z,7.60
2019-02-17T08:36:08.415Z,7.70
2019-02-17T08:38:37.988Z,7.80
2019-02-17T08:41:07.523Z,7.80
2019-02-17T08:43:37.160Z,8.10
2019-02-17T08:46:06.799Z,8.30
2019-02-17T08:48:36.507Z,8.40
2019-02-17T08:51:06.140Z,8.40
2019-02-17T08:53:35.851Z,8.20
2019-02-17T08:56:05.441Z,8.20
2019-02-17T08:58:35.123Z,8.30
2019-02-17T09:01:04.890Z,8.50
2019-02-17T09:03:34.439Z,8.70
2019-02-17T09:06:04.083Z,8.90
2019-02-17T09:08:34.591Z,8.90
2019-02-17T09:11:04.171Z,8.80
2019-02-17T09:13:33.823Z,8.80
2019-02-17T09:16:03.523Z,8.80
2019-02-17T09:18:33.129Z,8.80
2019-02-17T09:21:02.665Z,8.90
2019-02-17T09:23:32.394Z,8.90
2019-02-17T09:26:02.054Z,9.00
2019-02-17T09:28:31.631Z,9.00
2019-02-17T09:31:01.197Z,9.20
2019-02-17T09:33:30.858Z,9.30
2019-02-17T09:36:00.378Z,9.30
2019-02-17T09:38:29.974Z,9.50
2019-02-17T09:40:59.565Z,9.60
2019-02-17T09:43:29.181Z,9.80
2019-02-17T09:45:58.742Z,9.70
2019-02-17T09:48:28.396Z,9.80
2019-02-17T09:50:58.061Z,9.80
2019-02-17T09:53:27.741Z,9.90
2019-02-17T09:55:58.207Z,10.00
2019-02-17T09:58:27.819Z,10.20
2019-02-17T10:00:57.441Z,10.30
2019-02-17T10:03:27.176Z,10.50
2019-02-17T10:05:56.827Z,10.70
2019-02-17T10:08:26.456Z,10.80
2019-02-17T10:10:56.096Z,10.80
2019-02-17T10:13:25.737Z,10.90
2019-02-17T10:15:55.466Z,11.00
2019-02-17T10:18:25.139Z,11.20
2019-02-17T10:20:54.730Z,11.30
2019-02-17T10:23:24.517Z,11.40
2019-02-17T10:25:56.397Z,11.50
2019-02-17T10:28:25.483Z,11.50
2019-02-17T10:30:55.246Z,11.80
2019-02-17T10:33:24.867Z,11.90
2019-02-17T10:35:54.750Z,11.90
2019-02-17T10:38:24.542Z,12.00
2019-02-17T10:40:54.672Z,12.00
2019-02-17T10:43:24.408Z,11.80
2019-02-17T10:45:54.243Z,11.80
2019-02-17T10:48:23.844Z,11.80
2019-02-17T10:50:54.073Z,11.90
2019-02-17T10:53:23.833Z,12.00
2019-02-17T10:55:53.552Z,12.20
2019-02-17T10:58:23.126Z,12.30
2019-02-17T11:00:53.281Z,12.40
2019-02-17T11:03:22.995Z,12.40
2019-02-17T11:05:52.714Z,12.40
2019-02-17T11:08:22.315Z,12.40
2019-02-17T11:10:51.945Z,12.40
2019-02-17T11:13:21.701Z,12.40
2019-02-17T11:15:51.673Z,12.50
2019-02-17T11:18:21.386Z,12.40
2019-02-17T11:20:51.103Z,12.50
2019-02-17T11:23:21.001Z,12.60
2019-02-17T11:25:50.691Z,12.70
2019-02-17T11:28:20.311Z,12.70
2019-02-17T11:30:50.578Z,12.60
2019-02-17T11:33:20.292Z,12.60
2019-02-17T11:35:49.980Z,12.70
2019-02-17T11:38:19.758Z,12.90
2019-02-17T11:40:49.408Z,13.00
2019-02-17T11:43:19.205Z,13.10
2019-02-17T11:45:48.885Z,13.20
2019-02-17T11:48:18.526Z,13.30
2019-02-17T11:50:48.197Z,13.20
2019-02-17T11:53:17.881Z,13.20
2019-02-17T11:55:47.548Z,13.30
2019-02-17T11:58:20.229Z,13.20
2019-02-17T12:00:49.710Z,13.20
2019-02-17T12:03:19.321Z,13.30
2019-02-17T12:05:48.979Z,13.40
2019-02-17T12:08:18.695Z,13.50
2019-02-17T12:10:49.100Z,13.60
2019-02-17T12:13:18.693Z,13.70
2019-02-17T12:15:48.299Z,13.70
2019-02-17T12:18:17.885Z,13.70
2019-02-17T12:21:12.242Z,13.70
2019-02-17T12:23:44.955Z,13.70
2019-02-17T12:26:39.479Z,13.50
2019-02-17T12:29:21.273Z,13.60
2019-02-17T12:31:50.792Z,13.70
2019-02-17T12:34:20.452Z,13.80
2019-02-17T12:36:50.128Z,13.90
2019-02-17T12:39:21.656Z,13.90
2019-02-17T12:41:51.035Z,13.90
2019-02-17T12:44:20.861Z,13.90
2019-02-17T12:46:50.707Z,13.90
2019-02-17T12:49:23.041Z,14.00
2019-02-17T12:51:52.578Z,13.90
2019-02-17T12:54:28.904Z,13.90
2019-02-17T12:56:53.507Z,13.90
2019-02-17T12:59:23.093Z,14.00
2019-02-17T13:01:52.992Z,14.10
2019-02-17T13:04:22.604Z,14.00
2019-02-17T13:06:52.216Z,14.00
2019-02-17T13:09:21.893Z,14.00
2019-02-17T13:11:51.450Z,14.20
2019-02-17T13:14:21.188Z,14.20
2019-02-17T13:16:50.771Z,14.00
2019-02-17T13:19:20.409Z,13.90
2019-02-17T13:21:49.995Z,13.90
2019-02-17T13:24:50.711Z,14.00
2019-02-17T13:27:54.421Z,14.00
2019-02-17T13:30:18.969Z,13.90
2019-02-17T13:32:48.770Z,13.90
2019-02-17T13:35:23.172Z,13.80
2019-02-17T13:37:52.837Z,13.70
2019-02-17T13:40:22.449Z,13.70
2019-02-17T13:42:52.151Z,13.70
2019-02-17T13:45:22.083Z,13.80
2019-02-17T13:47:51.727Z,13.90
2019-02-17T13:50:21.415Z,13.90
2019-02-17T13:52:51.230Z,13.90
2019-02-17T13:55:20.839Z,13.80
2019-02-17T13:57:55.521Z,13.70
2019-02-17T14:00:25.334Z,13.80
2019-02-17T14:02:55.601Z,13.70
2019-02-17T14:05:25.371Z,13.70
2019-02-17T14:07:54.998Z,13.60
2019-02-17T14:10:24.588Z,13.60
2019-02-17T14:12:54.210Z,13.60
2019-02-17T14:15:24.146Z,13.60
2019-02-17T14:17:53.921Z,13.60
2019-02-17T14:20:23.533Z,13.50
2019-02-17T14:22:53.444Z,13.50
2019-02-17T14:25:23.050Z,13.40
2019-02-17T14:27:53.142Z,13.40
2019-02-17T14:30:22.842Z,13.50
2019-02-17T14:32:52.754Z,13.40
2019-02-17T14:35:22.533Z,13.40
2019-02-17T14:37:52.219Z,13.30
2019-02-17T14:40:21.822Z,13.30
2019-02-17T14:42:51.561Z,13.30
2019-02-17T14:45:21.274Z,13.30
2019-02-17T14:47:51.380Z,13.30
2019-02-17T14:50:21.441Z,13.20
2019-02-17T14:52:51.057Z,13.20
2019-02-17T14:55:20.825Z,13.20
2019-02-17T14:57:50.448Z,13.10
2019-02-17T15:00:20.195Z,13.10
2019-02-17T15:02:49.967Z,13.00
2019-02-17T15:05:19.733Z,13.00
2019-02-17T15:07:49.408Z,12.90
2019-02-17T15:10:19.060Z,12.90
2019-02-17T15:12:50.027Z,12.90
2019-02-17T15:15:19.815Z,12.90
2019-02-17T15:17:49.451Z,12.90
2019-02-17T15:20:19.238Z,12.80
2019-02-17T15:22:48.876Z,12.70
2019-02-17T15:25:18.477Z,12.70
2019-02-17T15:27:48.191Z,12.70
2019-02-17T15:30:18.527Z,12.60
2019-02-17T15:32:48.330Z,12.50
2019-02-17T15:35:17.946Z,12.70
2019-02-17T15:37:48.244Z,13.10
2019-02-17T15:40:17.918Z,13.20
2019-02-17T15:42:47.555Z,13.10
2019-02-17T15:45:17.118Z,13.00
2019-02-17T15:47:46.771Z,13.00
2019-02-17T15:50:16.470Z,12.90
2019-02-17T15:52:46.036Z,12.80
2019-02-17T15:55:17.124Z,12.80
2019-02-17T15:57:48.942Z,12.60
2019-02-17T16:00:21.256Z,12.60
2019-02-17T16:02:54.073Z,12.60
2019-02-17T16:05:28.052Z,12.60
2019-02-17T16:07:58.961Z,12.40
2019-02-17T16:10:28.599Z,12.20
2019-02-17T16:12:58.637Z,12.20
2019-02-17T16:15:28.327Z,12.10
2019-02-17T16:17:58.038Z,12.10
2019-02-17T16:20:27.769Z,12.20
2019-02-17T16:22:57.377Z,12.20
2019-02-17T16:25:26.964Z,11.90
2019-02-17T16:27:56.624Z,11.80
2019-02-17T16:30:27.842Z,11.60
2019-02-17T16:32:57.425Z,11.50
2019-02-17T16:35:27.311Z,11.40
2019-02-17T16:37:56.845Z,11.40
2019-02-17T16:40:26.544Z,11.30
2019-02-17T16:42:56.400Z,11.20
2019-02-17T16:45:25.933Z,11.10
2019-02-17T16:47:56.125Z,11.00
2019-02-17T16:50:25.802Z,10.90
2019-02-17T16:52:56.886Z,10.80
2019-02-17T16:55:26.590Z,10.70
2019-02-17T16:57:56.386Z,10.60
2019-02-17T17:00:26.123Z,10.50
2019-02-17T17:02:55.724Z,10.50
2019-02-17T17:05:28.165Z,10.40
2019-02-17T17:07:57.940Z,10.40
2019-02-17T17:10:27.695Z,10.40
2019-02-17T17:12:57.546Z,10.30
2019-02-17T17:15:27.169Z,10.30
2019-02-17T17:17:57.158Z,10.30
2019-02-17T17:20:26.737Z,10.30
2019-02-17T17:22:56.401Z,10.30
2019-02-17T17:25:26.871Z,10.20
2019-02-17T17:27:56.480Z,10.10
2019-02-17T17:30:26.048Z,10.00
2019-02-17T17:32:55.807Z,10.00
2019-02-17T17:35:25.510Z,10.00
2019-02-17T17:37:55.414Z,9.90
2019-02-17T17:40:25.062Z,9.90
2019-02-17T17:42:54.868Z,9.90
2019-02-17T17:45:24.454Z,9.90
2019-02-17T17:47:54.395Z,9.80
2019-02-17T17:50:24.009Z,9.70
2019-02-17T17:52:53.707Z,9.70
2019-02-17T17:55:24.145Z,9.70
2019-02-17T17:57:53.644Z,9.70
2019-02-17T18:00:24.416Z,9.50
2019-02-17T18:02:53.987Z,9.40
2019-02-17T18:05:23.568Z,9.30
2019-02-17T18:07:53.236Z,9.30
2019-02-17T18:10:22.963Z,9.30
2019-02-17T18:12:52.536Z,9.20
2019-02-17T18:15:22.343Z,9.00
2019-02-17T18:17:54.796Z,8.90
2019-02-17T18:20:26.717Z,8.90
2019-02-17T18:22:56.409Z,8.90
2019-02-17T18:25:26.050Z,8.80
2019-02-17T18:27:55.912Z,8.70
2019-02-17T18:30:25.615Z,8.60
2019-02-17T18:32:55.641Z,8.60
2019-02-17T18:35:25.304Z,8.50
2019-02-17T18:37:55.091Z,8.50
2019-02-17T18:40:26.121Z,8.50
2019-02-17T18:42:55.846Z,8.50
2019-02-17T18:45:25.865Z,8.60
2019-02-17T18:47:55.424Z,8.70
2019-02-17T18:50:25.359Z,8.90
2019-02-17T18:52:55.127Z,8.80
2019-02-17T18:55:24.667Z,8.90
2019-02-17T18:57:54.378Z,8.90
2019-02-17T19:00:25.074Z,8.80
2019-02-17T19:02:56.777Z,8.70
2019-02-17T19:05:32.151Z,8.60
2019-02-17T19:07:57.622Z,8.50
2019-02-17T19:10:27.954Z,8.40
2019-02-17T19:12:57.500Z,8.30
2019-02-17T19:15:27.286Z,8.20
2019-02-17T19:17:56.873Z,8.10
2019-02-17T19:20:29.319Z,8.00
2019-02-17T19:22:59.072Z,7.90
2019-02-17T19:25:28.828Z,7.90
2019-02-17T19:27:58.553Z,7.80
2019-02-17T19:30:28.173Z,7.80
2019-02-17T19:32:57.938Z,7.80
2019-02-17T19:35:27.618Z,7.80
2019-02-17T19:37:57.551Z,7.80
2019-02-17T19:40:27.359Z,7.90
2019-02-17T19:42:56.989Z,7.80
2019-02-17T19:45:26.566Z,7.80
2019-02-17T19:47:56.392Z,7.90
2019-02-17T19:50:25.975Z,7.90
2019-02-17T19:52:56.163Z,7.80
2019-02-17T19:55:25.831Z,7.80
2019-02-17T19:57:55.464Z,7.90
2019-02-17T20:00:25.226Z,7.80
2019-02-17T20:03:19.941Z,7.70
2019-02-17T20:05:53.058Z,7.80
2019-02-17T20:08:22.724Z,7.90
2019-02-17T20:10:52.796Z,7.90
2019-02-17T20:13:22.427Z,7.90
2019-02-17T20:15:52.424Z,8.00
2019-02-17T20:18:22.156Z,8.00
2019-02-17T20:20:51.774Z,8.00
2019-02-17T20:23:21.440Z,7.80
2019-02-17T20:25:51.013Z,7.80
2019-02-17T20:28:20.744Z,7.80
2019-02-17T20:30:50.452Z,7.80
2019-02-17T20:33:20.550Z,7.70
2019-02-17T20:35:50.174Z,7.70
2019-02-17T20:38:20.029Z,7.70
2019-02-17T20:40:49.773Z,7.60
2019-02-17T20:43:19.509Z,7.50
2019-02-17T20:45:49.222Z,7.50
2019-02-17T20:48:18.936Z,7.50
2019-02-17T20:50:48.516Z,7.30
2019-02-17T20:53:18.204Z,7.20
2019-02-17T20:55:47.898Z,7.20
2019-02-17T20:58:17.648Z,7.20
2019-02-17T21:00:47.763Z,7.30
2019-02-17T21:03:17.354Z,7.20
2019-02-17T21:05:46.918Z,7.20
2019-02-17T21:08:16.594Z,7.30
2019-02-17T21:10:46.203Z,7.20
2019-02-17T21:13:15.860Z,7.00
2019-02-17T21:15:51.363Z,7.00
2019-02-17T21:18:20.994Z,7.10
2019-02-17T21:20:50.587Z,7.20
2019-02-17T21:23:20.476Z,7.20
2019-02-17T21:25:50.097Z,7.30
2019-02-17T21:28:19.723Z,7.40
2019-02-17T21:30:50.600Z,7.40
2019-02-17T21:33:20.382Z,7.40
2019-02-17T21:35:49.956Z,7.40
2019-02-17T21:38:19.564Z,7.20
2019-02-17T21:40:49.294Z,7.20
2019-02-17T21:43:18.912Z,7.20
2019-02-17T21:45:48.475Z,7.20
2019-02-17T21:48:18.115Z,7.20
2019-02-17T21:50:47.732Z,7.30
2019-02-17T21:53:20.344Z,7.30
2019-02-17T21:55:48.668Z,7.30
2019-02-17T21:58:18.299Z,7.20
2019-02-17T22:00:48.072Z,7.20
2019-02-17T22:03:17.702Z,7.20
2019-02-17T22:05:47.285Z,7.10
2019-02-17T22:08:17.022Z,7.10
2019-02-17T22:10:46.785Z,7.00
2019-02-17T22:13:19.064Z,7.00
2019-02-17T22:15:48.683Z,7.10
2019-02-17T22:18:18.246Z,7.00
2019-02-17T22:20:47.887Z,7.00
2019-02-17T22:23:17.431Z,6.90
2019-02-17T22:25:47.134Z,6.80
2019-02-17T22:28:16.751Z,6.80
2019-02-17T22:30:46.326Z,6.70
2019-02-17T22:33:15.906Z,6.60
2019-02-17T22:35:45.475Z,6.60
2019-02-17T22:38:15.183Z,6.50
2019-02-17T22:40:44.828Z,6.40
2019-02-17T22:43:14.322Z,6.40
2019-02-17T22:45:43.923Z,6.40
2019-02-17T22:48:13.502Z,6.40
2019-02-17T22:50:43.075Z,6.50
2019-02-17T22:53:12.723Z,6.50
2019-02-17T22:55:42.336Z,6.50
2019-02-17T22:58:11.937Z,6.50
2019-02-17T23:01:00.420Z,6.40
2019-02-17T23:03:30.797Z,6.40
2019-02-17T23:06:01.365Z,6.30
2019-02-17T23:08:31.467Z,6.30
2019-02-17T23:11:01.134Z,6.20
2019-02-17T23:13:31.813Z,6.30
2019-02-17T23:16:01.567Z,6.30
2019-02-17T23:18:31.212Z,6.40
2019-02-17T23:21:01.351Z,6.40
2019-02-17T23:23:31.532Z,6.40
2019-02-17T23:26:01.196Z,6.20
2019-02-17T23:28:30.760Z,6.20
2019-02-17T23:31:00.478Z,6.20
2019-02-17T23:33:30.529Z,6.20
2019-02-17T23:36:00.328Z,6.20
2019-02-17T23:38:29.904Z,6.10
2019-02-17T23:40:59.542Z,6.00
2019-02-17T23:43:29.178Z,6.00
2019-02-17T23:45:59.164Z,6.00
2019-02-17T23:48:29.031Z,5.90
2019-02-17T23:50:58.570Z,5.90
2019-02-17T23:53:28.478Z,6.00
2019-02-17T23:55:58.423Z,5.90
2019-02-17T23:58:28.105Z,5.90
